Phnom Penh, Cambodia
Current Conditions -  °F | °C
As of 12:30 AM on Friday 31 Oct 2014 (Local Time) from VDPP Reporting Station
Broken Clouds Broken Clouds  
Wind Chill: 27°   Ceiling: 4000
Heat Index: 31°   Visibility: 6mi
Dew Point: 25°   Wind: 1mph
Humidity: 89%   Direction: NA
Pressure: 29.8"   Gusts: NA
Location:  11.56°N, 104.92°E
Report Text: VDPP 301730Z VRB01KT 9000 SCT015 BKN040 27/25 Q1009
Loading
Personal Weather Stations






























Interactive Weather Map
Tropical Storm Tracking
New forecast layout! Learn more

10-Day Weather Forecast

Advertisements
Track Severe Weather on mobile